首页
METAR-TAF:

METAR-TAF

机场 :

達拉謨, 英格兰

纬度: 54-31N, 经度: 001-25W, 海拔: 37米

当前天气观测

该预报发布于41分钟前的14:20 UTC
风速24节,风向西,有时为34节阵风
温度 7°C
湿度 61%
气压 1012 hPa
能见度10公里或以上
少量云层高于3000英尺

METAR: EGNV 231420Z 28024G34KT 9999 FEW030 07/M00 Q1012

时间: 15:01 (15:01 UTC)

预报

该预报发布于1小时和3分钟前的13:58 UTC
预报有效从23日的 15点(UTC)到 23日的 22点(UTC)
风速18节,风向西,有时为28节阵风
能见度10公里或以上
少量云层高于3000英尺
成为
从 23日的 16点(UTC)到 23日的 19点(UTC)
风速12节,风向西
成为
从 23日的 20点(UTC)到 23日的 22点(UTC)
风速5节,风向南转西南

TAF: EGNV 231358Z 2315/2322 27018G28KT 9999 FEW030 BECMG 2316/2319 27012KT BECMG 2320/2322 20005KT

超过4000个机场的气象观测和天气预报(METAR&TAF报告)。

可查询的气象台以黄色和红色小点在地图上表示。

将鼠标移到小点上方,可查看气象台名称。

然后点击查看天气观测和预报。

如需切换地图:点击带黑十字的绿色按钮放大地图;点击带横线的绿色按钮缩小地图;或者点击绿色箭头查看邻近地区的地图。


METAR-TAF: